Time;durP1;ratioP1;P1;durP2;ratioP2;P2;SDS_P1;SDS_P2;PMS_P1;PMS_P2;Temp;Humidity;BMP_temperature;BMP_pressure;BME280_temperature;BME280_humidity;BME280_pressure;Samples;Min_cycle;Max_cycle;Signal;HPM_P1;HPM_P2
2022/12/18 00:01:27;;;;;;;51.78;28.75;;;;;;;-4.96;94.43;102490.59;4984351;28;20540;-66
2022/12/18 00:03:55;;;;;;;50.17;28.67;;;;;;;-4.95;94.37;102490.66;4984727;28;20384;-66
2022/12/18 00:06:24;;;;;;;54.25;30.33;;;;;;;-4.91;93.85;102500.22;4985320;28;20549;-65
2022/12/18 00:08:52;;;;;;;48.88;27.35;;;;;;;-4.93;93.71;102507.00;4976007;28;20065;-65
2022/12/18 00:11:21;;;;;;;53.65;29.40;;;;;;;-4.96;93.71;102506.00;4984881;28;20153;-65
2022/12/18 00:13:49;;;;;;;47.38;26.10;;;;;;;-4.99;94.12;102511.06;4987967;28;20051;-65
2022/12/18 00:16:21;;;;;;;49.63;27.08;;;;;;;-4.95;93.23;102512.91;4981697;28;20141;-66
2022/12/18 00:18:50;;;;;;;54.75;28.02;;;;;;;-4.96;93.32;102512.00;4980254;28;20089;-65
2022/12/18 00:21:18;;;;;;;48.35;28.48;;;;;;;-4.99;93.47;102508.50;4979501;28;20137;-66
2022/12/18 00:23:47;;;;;;;50.65;29.63;;;;;;;-5.07;92.94;102503.06;4962927;28;20079;-67
2022/12/18 00:26:17;;;;;;;49.63;28.02;;;;;;;-5.10;93.58;102508.97;4968721;28;20078;-64
2022/12/18 00:28:45;;;;;;;53.00;27.90;;;;;;;-5.06;93.53;102503.94;4976462;28;20081;-65
2022/12/18 00:31:17;;;;;;;49.97;27.77;;;;;;;-5.08;92.96;102505.59;4979834;28;20456;-64
2022/12/18 00:33:45;;;;;;;53.42;28.88;;;;;;;-5.18;93.01;102504.38;4987155;28;20160;-65
2022/12/18 00:36:24;;;;;;;46.97;27.15;;;;;;;-5.47;93.66;102503.34;4999586;28;20055;-66
2022/12/18 00:38:53;;;;;;;51.67;28.95;;;;;;;-5.44;94.64;102500.88;5005195;28;20077;-65
2022/12/18 00:44:10;;;;;;;54.90;29.50;;;;;;;-5.34;94.83;102497.84;4988253;28;20030;-65
2022/12/18 00:46:37;;;;;;;50.72;29.83;;;;;;;-5.39;94.83;102501.94;4979442;28;20050;-66
2022/12/18 00:49:05;;;;;;;60.60;30.95;;;;;;;-5.39;95.03;102494.22;4976536;28;20059;-64
2022/12/18 00:51:32;;;;;;;55.42;30.67;;;;;;;-5.31;95.35;102500.53;4985812;28;20058;-67
2022/12/18 00:53:59;;;;;;;50.47;28.15;;;;;;;-5.37;95.16;102498.56;4992441;28;20515;-67
2022/12/18 00:56:26;;;;;;;49.53;27.33;;;;;;;-5.34;94.88;102495.25;4980904;28;21653;-66
2022/12/18 00:58:54;;;;;;;52.17;27.70;;;;;;;-5.32;95.28;102495.31;4968978;28;20047;-64
2022/12/18 01:01:21;;;;;;;49.63;27.90;;;;;;;-5.36;94.96;102490.09;4983443;28;20051;-65
2022/12/18 01:03:49;;;;;;;46.97;25.92;;;;;;;-5.32;93.98;102493.63;4985758;28;20066;-65
2022/12/18 01:06:16;;;;;;;44.60;26.27;;;;;;;-5.33;94.27;102493.56;5002338;28;20110;-66
2022/12/18 01:08:44;;;;;;;42.90;25.75;;;;;;;-5.37;94.35;102493.44;4988366;28;20121;-65
2022/12/18 01:11:14;;;;;;;46.58;24.63;;;;;;;-5.35;94.26;102503.78;5000358;28;20137;-65
2022/12/18 01:13:41;;;;;;;44.03;24.20;;;;;;;-5.50;93.40;102501.50;4982576;28;20118;-66
2022/12/18 01:16:11;;;;;;;45.20;25.65;;;;;;;-5.61;93.79;102508.81;4972601;28;20059;-63
2022/12/18 01:18:39;;;;;;;48.08;25.80;;;;;;;-5.59;94.26;102508.88;4988646;28;20058;-67
2022/12/18 01:21:11;;;;;;;47.97;26.85;;;;;;;-5.61;93.86;102510.53;4991188;28;20395;-66
2022/12/18 01:23:38;;;;;;;47.78;27.33;;;;;;;-5.64;94.00;102524.09;4986100;28;20057;-66
2022/12/18 01:26:11;;;;;;;56.20;28.23;;;;;;;-5.59;94.09;102521.69;4974711;28;20047;-67
2022/12/18 01:28:39;;;;;;;47.72;27.90;;;;;;;-5.61;94.63;102528.47;4969642;28;20549;-65
2022/12/18 01:31:33;;;;;;;47.72;26.92;;;;;;;-5.57;94.00;102535.47;4974517;28;20145;-64
2022/12/18 01:34:01;;;;;;;45.97;24.75;;;;;;;-5.62;93.96;102539.56;4980558;28;20220;-66
2022/12/18 01:36:36;;;;;;;40.85;23.08;;;;;;;-5.60;93.68;102535.34;4975775;28;20054;-66
2022/12/18 01:39:06;;;;;;;47.75;24.23;;;;;;;-5.64;93.79;102533.50;4984269;28;20057;-64
2022/12/18 01:45:00;;;;;;;48.08;24.92;;;;;;;-5.82;93.74;102531.09;4979311;28;20073;-66
2022/12/18 01:47:47;;;;;;;48.15;25.30;;;;;;;-5.77;93.47;102536.41;4968938;28;20396;-65
2022/12/18 01:50:24;;;;;;;53.92;27.60;;;;;;;-5.71;93.78;102534.97;4979682;28;20051;-64
2022/12/18 01:52:55;;;;;;;55.55;27.85;;;;;;;-5.70;93.44;102533.28;4981197;28;20051;-67
2022/12/18 01:55:25;;;;;;;57.67;30.27;;;;;;;-5.70;93.07;102529.00;4962059;28;20138;-66
2022/12/18 01:57:53;;;;;;;56.30;30.45;;;;;;;-5.76;93.12;102526.22;4977441;28;20050;-65
2022/12/18 02:00:23;;;;;;;53.60;28.88;;;;;;;-5.82;93.36;102541.34;4976529;28;20062;-66
2022/12/18 02:02:50;;;;;;;65.13;32.63;;;;;;;-5.79;93.39;102543.19;4988426;28;20085;-66
2022/12/18 02:05:27;;;;;;;63.17;32.90;;;;;;;-5.79;93.54;102540.59;4980328;28;20050;-67
2022/12/18 02:08:07;;;;;;;64.70;32.42;;;;;;;-5.79;94.02;102535.47;4982388;28;20062;-65
2022/12/18 02:11:13;;;;;;;62.63;32.63;;;;;;;-5.76;93.67;102539.03;4967499;28;20551;-65
2022/12/18 02:14:12;;;;;;;81.30;35.08;;;;;;;-5.75;93.18;102538.22;4979373;28;20558;-65
2022/12/18 02:17:03;;;;;;;76.57;38.33;;;;;;;-5.75;93.31;102543.34;4970937;28;20047;-64
2022/12/18 02:19:36;;;;;;;71.35;37.13;;;;;;;-5.76;92.88;102543.28;4978936;28;20511;-66
2022/12/18 02:22:35;;;;;;;81.32;38.85;;;;;;;-5.97;93.51;102544.25;4982723;28;20043;-66
2022/12/18 02:25:21;;;;;;;75.25;37.75;;;;;;;-5.97;94.00;102553.63;4973196;28;20054;-64
2022/12/18 02:27:49;;;;;;;82.88;38.85;;;;;;;-6.10;93.92;102546.25;4972527;28;20070;-64
2022/12/18 02:30:16;;;;;;;71.53;35.50;;;;;;;-6.17;94.08;102546.03;4976707;28;20042;-65
2022/12/18 02:32:47;;;;;;;86.93;41.63;;;;;;;-6.33;94.32;102553.88;4971861;28;20569;-65
2022/12/18 02:35:17;;;;;;;84.40;37.70;;;;;;;-6.29;94.93;102552.34;4987885;28;20610;-62
2022/12/18 02:37:45;;;;;;;75.90;37.55;;;;;;;-6.44;94.87;102558.59;4975878;28;20149;-64
2022/12/18 02:40:14;;;;;;;80.50;40.47;;;;;;;-6.34;95.58;102566.66;4985728;28;20057;-65
2022/12/18 02:42:41;;;;;;;92.68;42.88;;;;;;;-6.20;95.46;102565.53;4978796;28;20051;-65
2022/12/18 02:45:09;;;;;;;95.82;43.35;;;;;;;-6.17;95.55;102563.06;4981061;28;20462;-64
2022/12/18 02:47:38;;;;;;;93.85;44.65;;;;;;;-6.09;95.43;102560.81;4982246;28;20058;-64
2022/12/18 02:50:29;;;;;;;88.18;44.25;;;;;;;-6.02;95.28;102570.53;4975264;28;20057;-67
2022/12/18 02:52:59;;;;;;;84.45;42.28;;;;;;;-5.96;95.29;102573.31;4981426;28;20411;-65
2022/12/18 02:55:40;;;;;;;84.93;42.63;;;;;;;-5.95;94.85;102572.50;4967118;28;20067;-65
2022/12/18 02:58:46;;;;;;;89.40;43.10;;;;;;;-5.86;95.09;102567.69;4978349;28;20279;-65
2022/12/18 03:01:17;;;;;;;90.87;41.47;;;;;;;-5.84;94.72;102562.66;4985550;28;20122;-66
2022/12/18 03:03:52;;;;;;;97.57;46.50;;;;;;;-5.98;94.22;102563.00;4983709;28;20403;-65
2022/12/18 03:06:26;;;;;;;103.72;48.53;;;;;;;-5.91;94.28;102561.50;4999110;23;20074;-63
2022/12/18 03:08:59;;;;;;;90.65;44.28;;;;;;;-5.88;94.53;102567.66;5021720;28;20488;-63
2022/12/18 03:14:16;;;;;;;80.25;40.13;;;;;;;-5.80;94.04;102570.53;4995836;28;20498;-63
2022/12/18 03:16:44;;;;;;;83.88;42.10;;;;;;;-5.78;93.74;102571.44;5005162;28;20506;-63
2022/12/18 03:19:16;;;;;;;87.95;42.08;;;;;;;-5.76;93.73;102563.78;5004448;28;20075;-63
2022/12/18 03:21:47;;;;;;;80.97;39.92;;;;;;;-5.77;93.53;102572.31;4999525;28;20402;-63
2022/12/18 03:24:15;;;;;;;79.45;38.50;;;;;;;-5.77;93.29;102573.19;5016226;28;20050;-63
2022/12/18 03:26:44;;;;;;;70.70;37.30;;;;;;;-5.76;93.17;102568.91;4994830;28;20064;-63
2022/12/18 03:29:21;;;;;;;67.95;35.05;;;;;;;-5.76;92.97;102572.41;4993888;28;20068;-63
2022/12/18 03:31:53;;;;;;;72.15;36.45;;;;;;;-5.75;92.71;102579.25;4987398;28;20046;-64
2022/12/18 03:34:23;;;;;;;72.97;37.88;;;;;;;-5.77;92.26;102575.75;5015206;28;20152;-62
2022/12/18 03:36:51;;;;;;;68.65;36.05;;;;;;;-5.80;92.94;102575.66;4988236;28;20144;-62
2022/12/18 03:39:19;;;;;;;67.80;36.38;;;;;;;-5.89;92.69;102580.41;5021937;28;20060;-64
2022/12/18 03:42:01;;;;;;;67.55;33.53;;;;;;;-5.98;92.84;102568.13;5003939;28;20707;-64
2022/12/18 03:44:39;;;;;;;64.55;32.42;;;;;;;-5.90;92.84;102566.72;4997104;28;20046;-63
2022/12/18 03:47:15;;;;;;;56.53;31.17;;;;;;;-5.95;92.34;102567.38;5002768;28;20050;-63
2022/12/18 03:50:01;;;;;;;63.55;32.40;;;;;;;-5.97;92.66;102569.00;5002143;28;20066;-64
2022/12/18 03:52:30;;;;;;;60.65;32.33;;;;;;;-5.99;92.83;102575.75;5017439;28;20053;-63
2022/12/18 03:54:59;;;;;;;57.67;30.48;;;;;;;-6.09;92.56;102586.47;4996602;28;20136;-63
2022/12/18 03:57:29;;;;;;;64.72;30.85;;;;;;;-6.12;92.93;102580.41;5002643;28;20132;-64
2022/12/18 04:00:13;;;;;;;59.78;31.85;;;;;;;-6.21;93.35;102590.28;5014739;28;20470;-64
2022/12/18 04:02:49;;;;;;;59.55;30.45;;;;;;;-6.20;93.33;102584.34;5000326;28;20088;-63
2022/12/18 04:05:17;;;;;;;60.70;31.15;;;;;;;-6.14;93.89;102579.44;5011489;28;20045;-63
2022/12/18 04:07:46;;;;;;;58.97;29.38;;;;;;;-6.10;93.57;102569.34;4998404;28;20056;-63
2022/12/18 04:10:14;;;;;;;54.15;28.83;;;;;;;-6.10;93.01;102569.34;4994203;28;20058;-63
2022/12/18 04:12:42;;;;;;;57.78;31.13;;;;;;;-6.12;92.79;102574.41;5005026;28;20042;-63
2022/12/18 04:15:10;;;;;;;58.67;28.98;;;;;;;-6.13;93.21;102585.44;5004648;28;20045;-63
2022/12/18 04:17:38;;;;;;;59.88;30.33;;;;;;;-6.14;93.17;102579.44;5023356;28;20058;-64
2022/12/18 04:20:06;;;;;;;56.42;29.88;;;;;;;-6.13;93.04;102578.63;5000394;28;20054;-64
2022/12/18 04:22:33;;;;;;;54.05;29.58;;;;;;;-6.13;93.05;102591.44;5020530;28;20509;-64
2022/12/18 04:25:00;;;;;;;54.67;27.58;;;;;;;-6.13;92.99;102593.13;5017993;28;20068;-64
2022/12/18 04:27:27;;;;;;;56.55;29.70;;;;;;;-6.12;92.57;102602.59;5017018;28;20050;-63
2022/12/18 04:29:54;;;;;;;58.97;28.92;;;;;;;-6.13;92.83;102600.81;5012472;28;20042;-64
2022/12/18 04:32:21;;;;;;;55.90;28.20;;;;;;;-6.17;92.75;102592.16;5012847;28;20137;-64
2022/12/18 04:34:48;;;;;;;54.25;26.90;;;;;;;-6.20;93.02;102592.03;5010035;28;20569;-63
2022/12/18 04:37:15;;;;;;;53.40;26.58;;;;;;;-6.20;93.02;102592.03;5008256;28;20054;-64
2022/12/18 04:39:43;;;;;;;57.55;27.60;;;;;;;-6.21;92.91;102600.53;5024316;28;20050;-64
2022/12/18 04:42:10;;;;;;;60.03;29.30;;;;;;;-6.23;93.29;102603.84;5011331;28;20049;-64
2022/12/18 04:44:37;;;;;;;55.75;27.77;;;;;;;-6.27;92.80;102607.94;5016771;28;20050;-64
2022/12/18 04:47:04;;;;;;;50.45;27.38;;;;;;;-6.29;93.12;102604.47;5011438;28;20060;-63
2022/12/18 04:49:31;;;;;;;54.67;26.83;;;;;;;-6.30;93.19;102600.16;5011246;28;20061;-64
2022/12/18 04:51:58;;;;;;;57.47;28.85;;;;;;;-6.32;93.30;102601.75;5014764;28;20046;-63
2022/12/18 04:54:25;;;;;;;56.13;26.90;;;;;;;-6.34;93.02;102593.16;4993598;28;20050;-61
2022/12/18 04:56:53;;;;;;;52.95;26.23;;;;;;;-6.37;93.66;102596.44;5010609;28;20054;-64
2022/12/18 04:59:21;;;;;;;49.38;24.70;;;;;;;-6.39;93.30;102597.22;5020329;28;20143;-64
2022/12/18 05:01:49;;;;;;;52.13;27.25;;;;;;;-6.40;93.53;102593.75;5012812;28;20069;-63
2022/12/18 05:04:16;;;;;;;54.90;26.10;;;;;;;-6.37;93.77;102600.69;5013813;28;20205;-64
2022/12/18 05:06:44;;;;;;;57.63;27.02;;;;;;;-6.41;93.87;102607.38;5018000;28;20085;-64
2022/12/18 05:09:11;;;;;;;53.55;27.38;;;;;;;-6.38;93.77;102606.66;5022539;28;20045;-63
2022/12/18 05:11:38;;;;;;;55.78;27.95;;;;;;;-6.37;94.01;102611.81;5009950;28;20049;-64
2022/12/18 05:14:05;;;;;;;58.92;27.10;;;;;;;-6.33;94.15;102605.16;5016704;28;20068;-64
2022/12/18 05:16:32;;;;;;;59.75;26.67;;;;;;;-6.30;93.82;102612.97;5018619;28;20521;-64
2022/12/18 05:19:00;;;;;;;55.97;26.67;;;;;;;-6.28;93.98;102623.28;5020086;28;20053;-62
2022/12/18 05:21:27;;;;;;;61.90;30.05;;;;;;;-6.28;93.35;102624.16;5013006;28;20148;-63
2022/12/18 05:23:54;;;;;;;54.30;25.50;;;;;;;-6.29;93.18;102630.09;4994725;28;20512;-64
2022/12/18 05:26:21;;;;;;;54.65;26.13;;;;;;;-6.28;93.41;102634.41;5009264;28;20205;-64
2022/12/18 05:28:48;;;;;;;62.95;28.33;;;;;;;-6.28;93.52;102636.97;5010946;28;20459;-64
2022/12/18 05:31:15;;;;;;;59.50;27.60;;;;;;;-6.28;93.38;102647.22;5005204;28;20080;-64
2022/12/18 05:33:42;;;;;;;61.35;29.08;;;;;;;-6.35;93.83;102640.06;5013982;28;20577;-64
2022/12/18 05:36:11;;;;;;;56.83;28.02;;;;;;;-6.30;93.78;102646.28;5007862;28;20050;-64
2022/12/18 05:38:39;;;;;;;59.97;27.13;;;;;;;-6.37;93.54;102641.69;5013956;28;20071;-64
2022/12/18 05:41:07;;;;;;;59.83;28.00;;;;;;;-6.33;93.96;102645.28;5013704;28;20045;-64
2022/12/18 05:43:36;;;;;;;64.63;29.05;;;;;;;-6.41;94.01;102642.38;5013577;28;20379;-64
2022/12/18 05:46:05;;;;;;;67.78;30.23;;;;;;;-6.49;94.47;102641.16;5010959;28;20057;-64
2022/12/18 05:48:33;;;;;;;63.00;29.45;;;;;;;-6.42;94.98;102641.50;5021246;28;20064;-64
2022/12/18 05:51:06;;;;;;;62.05;28.08;;;;;;;-6.33;94.65;102645.28;5000306;28;20060;-64
2022/12/18 05:53:34;;;;;;;64.45;30.10;;;;;;;-6.31;94.86;102648.75;5016716;28;20137;-64
2022/12/18 05:56:06;;;;;;;70.25;32.90;;;;;;;-6.26;94.62;102658.44;5022287;28;20479;-64
2022/12/18 05:58:34;;;;;;;69.15;32.80;;;;;;;-6.29;94.42;102650.59;5012745;28;20132;-64
2022/12/18 06:01:09;;;;;;;69.47;31.58;;;;;;;-6.24;94.71;102646.53;5028027;28;20413;-64
2022/12/18 06:03:36;;;;;;;84.43;33.17;;;;;;;-6.20;94.01;102653.53;5009631;28;20313;-63
2022/12/18 06:06:04;;;;;;;72.45;32.65;;;;;;;-6.23;93.85;102661.09;5029178;28;20049;-64
2022/12/18 06:08:31;;;;;;;77.00;34.28;;;;;;;-6.21;94.35;102666.31;4999742;28;20041;-64
2022/12/18 06:10:58;;;;;;;79.93;35.80;;;;;;;-6.20;93.74;102670.63;5014477;28;20090;-64
2022/12/18 06:13:26;;;;;;;85.65;36.38;;;;;;;-6.19;94.16;102667.25;5013555;28;20042;-64
2022/12/18 06:15:53;;;;;;;79.10;35.08;;;;;;;-6.24;94.04;102669.59;5011538;28;20386;-63
2022/12/18 06:18:20;;;;;;;75.95;34.63;;;;;;;-6.30;94.30;102663.31;5011617;28;20053;-64
2022/12/18 06:20:55;;;;;;;74.00;33.47;;;;;;;-6.42;94.79;102673.94;5018729;28;20046;-64
2022/12/18 06:23:22;;;;;;;77.55;36.28;;;;;;;-6.43;94.99;102674.75;5019796;28;20433;-64
2022/12/18 06:25:50;;;;;;;75.95;35.35;;;;;;;-6.34;95.18;102671.72;5024691;28;20065;-64
2022/12/18 06:28:18;;;;;;;77.60;35.42;;;;;;;-6.37;94.67;102675.88;5021209;28;20057;-64
2022/12/18 06:30:46;;;;;;;80.07;35.80;;;;;;;-6.44;95.04;102676.44;5012200;28;20060;-64
2022/12/18 06:33:14;;;;;;;77.20;33.40;;;;;;;-6.35;95.45;102681.06;4995410;28;20061;-64
2022/12/18 06:35:42;;;;;;;79.50;37.05;;;;;;;-6.25;95.34;102682.38;5005385;28;20075;-64
2022/12/18 06:38:09;;;;;;;73.07;34.97;;;;;;;-6.20;95.33;102689.44;5016509;28;20136;-64
2022/12/18 06:40:38;;;;;;;82.95;36.95;;;;;;;-6.15;95.41;102695.63;5016650;28;20060;-63
2022/12/18 06:43:05;;;;;;;72.57;34.25;;;;;;;-6.10;95.07;102694.94;4994557;28;20073;-62
2022/12/18 06:45:33;;;;;;;66.47;34.67;;;;;;;-6.08;94.78;102711.25;5011758;28;20140;-64
2022/12/18 06:48:00;;;;;;;71.90;34.15;;;;;;;-6.07;94.54;102707.91;5016297;28;20385;-65
2022/12/18 06:50:28;;;;;;;75.32;35.20;;;;;;;-6.07;94.23;102703.66;5013255;28;20104;-64
2022/12/18 06:52:55;;;;;;;63.67;33.20;;;;;;;-6.08;94.16;102707.00;5009565;28;20054;-64
2022/12/18 06:55:23;;;;;;;66.20;33.13;;;;;;;-6.10;94.13;102712.91;5015334;28;20059;-63
2022/12/18 06:57:50;;;;;;;65.80;32.90;;;;;;;-6.10;94.13;102723.16;5013269;28;20502;-64
2022/12/18 07:00:17;;;;;;;70.30;33.45;;;;;;;-6.11;93.90;102732.53;5015020;28;20060;-65
2022/12/18 07:02:44;;;;;;;67.00;32.20;;;;;;;-6.20;94.06;102734.72;5020653;28;20064;-65
2022/12/18 07:05:12;;;;;;;68.22;31.83;;;;;;;-6.16;93.97;102726.34;5026526;28;20048;-64
2022/12/18 07:07:39;;;;;;;66.90;31.42;;;;;;;-6.18;94.32;102720.25;5013334;28;20058;-65
2022/12/18 07:10:06;;;;;;;66.30;31.80;;;;;;;-6.18;94.58;102707.44;5003778;28;20505;-63
2022/12/18 07:12:33;;;;;;;65.50;31.67;;;;;;;-6.13;94.38;102708.50;4991936;28;20140;-64
2022/12/18 07:15:01;;;;;;;69.68;32.15;;;;;;;-6.23;94.44;102712.38;5020035;28;20048;-63
2022/12/18 07:17:29;;;;;;;65.43;33.60;;;;;;;-6.25;95.17;102719.13;5011214;28;20058;-64
2022/12/18 07:19:56;;;;;;;61.17;30.90;;;;;;;-6.21;94.53;102713.31;5009762;28;20042;-62
2022/12/18 07:22:25;;;;;;;64.13;31.67;;;;;;;-6.22;94.73;102710.66;5022351;28;20052;-64
2022/12/18 07:24:52;;;;;;;65.82;32.47;;;;;;;-6.22;94.76;102721.81;5026593;28;20551;-63
2022/12/18 07:27:19;;;;;;;65.75;33.00;;;;;;;-6.17;94.79;102724.56;5012942;28;20052;-64
2022/12/18 07:29:46;;;;;;;63.30;30.80;;;;;;;-6.12;94.43;102733.34;5010980;28;20132;-63
2022/12/18 07:32:13;;;;;;;64.70;32.80;;;;;;;-6.12;94.26;102717.97;4998342;28;20415;-64
2022/12/18 07:34:41;;;;;;;60.08;30.15;;;;;;;-6.12;94.37;102721.41;4996955;28;20064;-64
2022/12/18 07:37:08;;;;;;;66.03;32.35;;;;;;;-6.07;94.47;102715.59;5016595;28;20095;-64
2022/12/18 07:39:35;;;;;;;66.32;33.10;;;;;;;-6.07;94.27;102720.72;5015194;28;20533;-64
2022/12/18 07:44:49;;;;;;;70.85;33.33;;;;;;;-6.07;94.49;102723.28;5020133;28;20093;-64
2022/12/18 07:47:16;;;;;;;67.50;32.08;;;;;;;-6.05;94.17;102729.34;5012606;28;20128;-64
2022/12/18 07:49:43;;;;;;;59.88;30.88;;;;;;;-6.03;94.05;102722.59;5024078;28;20045;-64
2022/12/18 07:52:12;;;;;;;66.47;33.00;;;;;;;-6.02;93.39;102726.94;5012376;28;20136;-63
2022/12/18 07:54:40;;;;;;;66.30;32.85;;;;;;;-6.05;93.28;102725.09;5021274;28;20124;-63
2022/12/18 07:57:07;;;;;;;66.45;31.42;;;;;;;-6.05;93.72;102721.66;5015561;28;20053;-63
2022/12/18 07:59:53;;;;;;;62.75;30.85;;;;;;;-6.04;94.16;102710.59;5023213;28;20052;-63
2022/12/18 08:02:20;;;;;;;73.07;34.45;;;;;;;-6.05;93.92;102719.09;5020974;28;20054;-63
2022/12/18 08:04:47;;;;;;;66.85;33.42;;;;;;;-6.05;94.46;102726.78;5026658;28;20064;-63
2022/12/18 08:07:15;;;;;;;63.33;31.85;;;;;;;-6.04;93.97;102729.41;5022621;28;20144;-64
2022/12/18 08:09:42;;;;;;;68.88;33.42;;;;;;;-5.98;93.89;102726.25;5006186;28;20124;-63
2022/12/18 08:12:09;;;;;;;62.33;32.67;;;;;;;-5.96;93.70;102729.75;5020337;28;20045;-64
2022/12/18 08:14:36;;;;;;;66.65;32.53;;;;;;;-5.95;93.83;102731.50;5007262;28;20056;-64
2022/12/18 08:17:03;;;;;;;60.40;32.97;;;;;;;-5.93;93.60;102737.56;5010027;28;20132;-64
2022/12/18 08:19:31;;;;;;;57.28;32.63;;;;;;;-5.93;94.13;102727.31;5002199;28;20063;-63
2022/12/18 08:21:58;;;;;;;61.20;33.10;;;;;;;-5.96;93.47;102730.63;4985661;28;20053;-65
2022/12/18 08:24:25;;;;;;;57.08;30.75;;;;;;;-5.98;93.46;102734.81;4999748;28;20070;-65
2022/12/18 08:26:52;;;;;;;50.78;28.60;;;;;;;-5.97;93.23;102746.81;5012455;28;20072;-63
2022/12/18 08:29:39;;;;;;;58.15;30.67;;;;;;;-6.03;93.35;102749.13;5000412;28;20125;-61
2022/12/18 08:32:07;;;;;;;56.25;28.70;;;;;;;-6.07;93.36;102749.81;4994238;28;20094;-63
2022/12/18 08:34:34;;;;;;;51.53;28.27;;;;;;;-6.03;93.81;102732.84;5018932;28;20133;-63
2022/12/18 08:37:01;;;;;;;50.80;29.40;;;;;;;-6.02;93.23;102740.63;5015357;28;20129;-63
2022/12/18 08:39:28;;;;;;;53.70;27.75;;;;;;;-5.98;93.48;102746.75;5000283;28;20081;-64
2022/12/18 08:44:41;;;;;;;59.38;31.45;;;;;;;-5.98;93.33;102752.75;5005256;28;20049;-63
2022/12/18 08:47:08;;;;;;;51.75;28.08;;;;;;;-5.96;93.21;102756.25;5012626;28;20052;-63
2022/12/18 08:49:36;;;;;;;53.78;29.77;;;;;;;-6.01;93.01;102755.19;5016734;28;20077;-64
2022/12/18 08:52:03;;;;;;;59.17;30.38;;;;;;;-6.01;93.11;102749.19;5022646;28;20050;-63
2022/12/18 08:54:30;;;;;;;53.88;30.63;;;;;;;-5.95;93.55;102752.88;5006578;28;20045;-63
2022/12/18 08:56:57;;;;;;;57.67;31.80;;;;;;;-5.93;93.66;102760.66;5024425;28;20072;-64
2022/12/18 08:59:25;;;;;;;53.08;28.33;;;;;;;-5.97;93.81;102771.59;5025480;28;20088;-64
2022/12/18 09:01:53;;;;;;;56.60;29.70;;;;;;;-5.90;93.69;102786.38;5012130;28;20494;-64
2022/12/18 09:04:22;;;;;;;48.97;26.95;;;;;;;-5.92;93.45;102782.91;4995951;28;20056;-64
2022/12/18 09:06:49;;;;;;;49.47;26.55;;;;;;;-5.91;93.39;102779.50;5018936;23;20420;-87
2022/12/18 09:09:16;;;;;;;51.63;27.77;;;;;;;-5.86;93.57;102772.88;4990321;28;20061;-87
2022/12/18 09:11:44;;;;;;;48.58;25.65;;;;;;;-5.79;92.77;102780.03;5000105;28;20041;-86
2022/12/18 09:14:11;;;;;;;51.88;27.92;;;;;;;-5.82;92.76;102774.75;4982577;28;20037;-87
2022/12/18 09:16:38;;;;;;;54.17;27.73;;;;;;;-5.80;93.05;102782.53;4983551;28;20082;-87
2022/12/18 09:19:06;;;;;;;57.95;28.67;;;;;;;-5.76;93.03;102792.09;4978040;28;20045;-89
2022/12/18 09:21:36;;;;;;;53.65;27.35;;;;;;;-5.74;92.32;102788.81;4991177;28;20097;-87
2022/12/18 09:24:04;;;;;;;57.67;29.75;;;;;;;-5.69;92.84;102787.31;4969831;28;20105;-86
2022/12/18 09:26:35;;;;;;;51.40;28.17;;;;;;;-5.73;92.65;102790.53;4996805;28;20039;-87
2022/12/18 09:29:03;;;;;;;53.40;28.05;;;;;;;-5.76;93.10;102790.44;5012962;28;20464;-89
2022/12/18 09:31:30;;;;;;;54.83;28.27;;;;;;;-5.69;93.65;102789.88;5023346;28;20054;-85
2022/12/18 09:33:58;;;;;;;54.38;29.88;;;;;;;-5.65;93.70;102786.63;4966561;28;20077;-86
2022/12/18 09:36:25;;;;;;;52.25;30.05;;;;;;;-5.59;93.79;102793.69;4973836;28;20065;-86
2022/12/18 09:38:53;;;;;;;59.42;30.30;;;;;;;-5.51;93.15;102794.03;5008577;28;20211;-87
2022/12/18 09:41:40;;;;;;;55.08;30.55;;;;;;;-5.40;93.90;102785.09;4988150;28;20050;-87
2022/12/18 09:48:28;;;;;;;58.03;30.05;;;;;;;-5.32;93.46;102768.28;5009799;28;20109;-87
2022/12/18 09:51:01;;;;;;;57.28;30.25;;;;;;;-5.25;93.49;102766.84;4955824;28;20046;-87
2022/12/18 09:53:33;;;;;;;57.25;30.42;;;;;;;-5.23;93.50;102767.78;4976669;28;20038;-88
2022/12/18 09:56:01;;;;;;;55.13;29.40;;;;;;;-5.22;94.20;102764.44;4991560;28;20072;-87
2022/12/18 09:58:44;;;;;;;56.80;30.52;;;;;;;-5.20;94.43;102758.50;4992094;28;20057;-86
2022/12/18 10:01:14;;;;;;;59.47;30.67;;;;;;;-5.20;94.67;102755.94;4990741;28;20046;-86
2022/12/18 10:03:42;;;;;;;56.25;29.80;;;;;;;-5.20;94.96;102737.09;4953687;28;20046;-86
2022/12/18 10:06:18;;;;;;;62.40;30.27;;;;;;;-5.20;94.71;102737.09;4992541;28;20079;-86
2022/12/18 10:08:45;;;;;;;56.05;31.08;;;;;;;-5.17;94.86;102726.97;4956608;28;20038;-86
2022/12/18 10:11:32;;;;;;;60.13;29.23;;;;;;;-5.15;95.01;102730.44;5001630;28;20145;-84
2022/12/18 10:14:14;;;;;;;61.55;31.77;;;;;;;-5.12;95.55;102720.31;4961731;28;20042;-86
2022/12/18 10:16:51;;;;;;;62.67;31.55;;;;;;;-5.08;95.91;102722.19;5001599;28;20062;-85
2022/12/18 10:19:22;;;;;;;56.67;31.67;;;;;;;-5.06;95.52;102724.81;4954411;28;20069;-86
2022/12/18 10:22:02;;;;;;;61.10;33.90;;;;;;;-4.97;95.76;102725.16;5012412;28;20109;-86
2022/12/18 10:24:40;;;;;;;61.05;33.28;;;;;;;-4.93;95.91;102727.91;4995349;28;20058;-86
2022/12/18 10:27:18;;;;;;;62.30;33.95;;;;;;;-4.89;95.91;102721.19;4990777;28;20035;-86
2022/12/18 10:29:46;;;;;;;65.22;34.33;;;;;;;-4.84;95.88;102727.38;4999596;28;20042;-86
2022/12/18 10:32:22;;;;;;;56.47;30.63;;;;;;;-4.80;95.75;102731.81;4995410;28;20034;-84
2022/12/18 10:34:52;;;;;;;60.92;32.55;;;;;;;-4.72;95.61;102722.69;4955342;28;20038;-85
2022/12/18 10:37:28;;;;;;;58.88;30.70;;;;;;;-4.65;95.77;102713.50;4968342;28;20091;-84
2022/12/18 10:40:09;;;;;;;54.88;31.45;;;;;;;-4.64;95.67;102715.25;4970857;28;20069;-87
2022/12/18 10:42:37;;;;;;;64.30;34.90;;;;;;;-4.63;95.65;102709.31;5000347;28;20081;-86
2022/12/18 10:45:15;;;;;;;61.75;33.30;;;;;;;-4.62;95.67;102704.22;4969515;28;20172;-86
2022/12/18 10:47:48;;;;;;;66.53;35.05;;;;;;;-4.60;95.94;102705.16;4998790;28;20050;-86
2022/12/18 10:50:24;;;;;;;69.93;36.35;;;;;;;-4.54;96.42;102701.06;4996555;28;20030;-85
2022/12/18 10:52:59;;;;;;;64.00;34.38;;;;;;;-4.55;96.17;102699.28;4983447;28;20048;-86
2022/12/18 10:55:32;;;;;;;67.50;36.10;;;;;;;-4.52;96.39;102687.44;4954719;28;20042;-87
2022/12/18 10:58:22;;;;;;;64.05;34.45;;;;;;;-4.45;96.32;102685.97;4970595;28;20079;-87
2022/12/18 11:01:19;;;;;;;62.85;34.60;;;;;;;-4.38;96.26;102675.94;4989941;28;20049;-87
2022/12/18 11:03:50;;;;;;;66.63;33.65;;;;;;;-4.38;96.53;102668.22;4984961;28;20042;-86
2022/12/18 11:06:24;;;;;;;69.57;35.53;;;;;;;-4.34;95.91;102674.38;4989149;28;20039;-86
2022/12/18 11:09:03;;;;;;;62.95;33.80;;;;;;;-4.36;96.02;102679.47;4969005;28;20112;-86
2022/12/18 11:11:39;;;;;;;66.38;33.28;;;;;;;-4.34;96.36;102682.06;4985517;28;20061;-86
2022/12/18 11:14:22;;;;;;;59.45;33.15;;;;;;;-4.29;96.81;102677.09;4986415;28;20488;-86
2022/12/18 11:16:51;;;;;;;67.70;33.63;;;;;;;-4.28;96.68;102678.84;4967237;28;20206;-86
2022/12/18 11:19:39;;;;;;;60.30;32.20;;;;;;;-4.21;96.40;102675.66;4981286;28;20077;-87
2022/12/18 11:22:21;;;;;;;60.22;30.05;;;;;;;-4.19;96.18;102672.31;4968406;28;20085;-86
2022/12/18 11:24:53;;;;;;;59.55;32.40;;;;;;;-4.17;95.84;102670.69;4972948;28;20050;-87
2022/12/18 11:27:41;;;;;;;55.05;29.58;;;;;;;-4.15;96.04;102674.16;4985656;28;20177;-87
2022/12/18 11:30:10;;;;;;;53.78;29.55;;;;;;;-4.20;96.43;102678.28;4979960;28;20417;-87
2022/12/18 11:32:39;;;;;;;53.85;29.45;;;;;;;-4.27;95.97;102668.63;4984443;28;20046;-87
2022/12/18 11:35:30;;;;;;;52.50;28.80;;;;;;;-4.25;96.04;102679.81;4964438;28;20042;-87
2022/12/18 11:38:06;;;;;;;51.97;27.92;;;;;;;-4.22;96.21;102689.34;4974491;28;20073;-87
2022/12/18 11:40:36;;;;;;;53.72;29.02;;;;;;;-4.19;96.47;102685.16;4961923;28;20049;-88
2022/12/18 11:43:36;;;;;;;51.03;26.98;;;;;;;-4.12;96.04;102669.13;4973054;28;20053;-88
2022/12/18 11:46:14;;;;;;;59.58;30.17;;;;;;;-4.14;95.74;102683.66;4981533;28;20097;-88